createdAt,value
2019-02-25T00:01:43.476Z,99.90
2019-02-25T00:04:14.654Z,99.90
2019-02-25T00:06:45.379Z,99.90
2019-02-25T00:09:16.174Z,99.90
2019-02-25T00:11:46.828Z,99.90
2019-02-25T00:14:17.762Z,99.90
2019-02-25T00:16:50.049Z,99.90
2019-02-25T00:19:20.945Z,99.90
2019-02-25T00:21:51.645Z,99.90
2019-02-25T00:24:22.557Z,99.90
2019-02-25T00:26:53.265Z,99.90
2019-02-25T00:29:24.521Z,99.90
2019-02-25T00:31:55.328Z,99.90
2019-02-25T00:34:26.251Z,99.90
2019-02-25T00:36:57.184Z,99.90
2019-02-25T00:39:28.328Z,99.90
2019-02-25T00:41:59.530Z,99.90
2019-02-25T00:44:30.200Z,99.90
2019-02-25T00:47:00.798Z,99.90
2019-02-25T00:49:31.416Z,99.90
2019-02-25T00:52:02.711Z,99.90
2019-02-25T00:54:33.439Z,99.90
2019-02-25T00:57:04.132Z,99.90
2019-02-25T00:59:34.738Z,99.90
2019-02-25T01:02:05.354Z,99.90
2019-02-25T01:04:36.281Z,99.90
2019-02-25T01:07:07.212Z,99.90
2019-02-25T01:09:37.816Z,99.90
2019-02-25T01:12:08.428Z,99.90
2019-02-25T01:14:40.380Z,99.90
2019-02-25T01:17:11.399Z,99.90
2019-02-25T01:19:41.928Z,99.90
2019-02-25T01:22:12.564Z,99.90
2019-02-25T01:24:43.101Z,99.90
2019-02-25T01:27:13.894Z,99.90
2019-02-25T01:29:44.585Z,99.90
2019-02-25T01:32:15.250Z,99.90
2019-02-25T01:34:45.865Z,99.90
2019-02-25T01:37:16.597Z,99.90
2019-02-25T01:39:47.221Z,99.90
2019-02-25T01:42:17.899Z,99.90
2019-02-25T01:44:48.507Z,99.90
2019-02-25T01:47:19.265Z,99.90
2019-02-25T01:49:50.104Z,99.90
2019-02-25T01:52:20.801Z,99.90
2019-02-25T01:54:51.477Z,99.90
2019-02-25T01:57:22.152Z,99.90
2019-02-25T01:59:52.883Z,99.90
2019-02-25T02:02:23.476Z,99.90
2019-02-25T02:04:54.099Z,99.90
2019-02-25T02:07:24.684Z,99.90
2019-02-25T02:09:55.297Z,99.90
2019-02-25T02:12:25.934Z,99.90
2019-02-25T02:14:56.632Z,99.90
2019-02-25T02:17:27.305Z,99.90
2019-02-25T02:19:57.873Z,99.90
2019-02-25T02:22:28.585Z,99.90
2019-02-25T02:24:59.240Z,99.90
2019-02-25T02:27:29.860Z,99.90
2019-02-25T02:30:00.486Z,99.90
2019-02-25T02:32:31.131Z,99.90
2019-02-25T02:35:01.813Z,99.90
2019-02-25T02:37:32.560Z,99.90
2019-02-25T02:40:03.371Z,99.90
2019-02-25T02:42:34.213Z,99.90
2019-02-25T02:45:29.966Z,99.90
2019-02-25T02:48:06.529Z,99.90
2019-02-25T02:50:37.113Z,99.90
2019-02-25T02:53:07.917Z,99.90
2019-02-25T02:55:38.665Z,99.90
2019-02-25T02:58:09.457Z,99.90
2019-02-25T03:00:41.211Z,99.90
2019-02-25T03:03:11.855Z,99.90
2019-02-25T03:05:42.533Z,99.90
2019-02-25T03:08:13.385Z,99.90
2019-02-25T03:10:44.036Z,99.90
2019-02-25T03:13:14.716Z,99.90
2019-02-25T03:15:45.321Z,99.90
2019-02-25T03:18:15.940Z,99.90
2019-02-25T03:20:46.584Z,99.90
2019-02-25T03:23:17.292Z,99.90
2019-02-25T03:25:47.971Z,99.90
2019-02-25T03:31:15.209Z,99.90
2019-02-25T03:33:45.957Z,99.90
2019-02-25T03:36:16.564Z,99.90
2019-02-25T03:38:47.319Z,99.90
2019-02-25T03:41:18.081Z,99.90
2019-02-25T03:43:49.852Z,99.90
2019-02-25T03:46:20.459Z,99.90
2019-02-25T03:48:51.132Z,99.90
2019-02-25T03:51:21.804Z,99.90
2019-02-25T03:53:52.380Z,99.90
2019-02-25T03:56:22.993Z,99.90
2019-02-25T03:58:53.501Z,99.90
2019-02-25T04:01:24.218Z,99.90
2019-02-25T04:03:54.817Z,99.90
2019-02-25T04:06:25.381Z,99.90
2019-02-25T04:08:56.057Z,99.90
2019-02-25T04:11:26.769Z,99.90
2019-02-25T04:13:57.363Z,99.90
2019-02-25T04:19:24.266Z,99.90
2019-02-25T04:21:54.826Z,99.90
2019-02-25T04:24:25.413Z,99.90
2019-02-25T04:26:55.993Z,99.90
2019-02-25T04:29:26.628Z,99.90
2019-02-25T04:31:57.203Z,99.90
2019-02-25T04:34:27.815Z,99.90
2019-02-25T04:36:58.388Z,99.90
2019-02-25T04:39:28.973Z,99.90
2019-02-25T04:41:59.569Z,99.90
2019-02-25T04:44:30.127Z,99.90
2019-02-25T04:49:44.671Z,99.90
2019-02-25T04:52:15.136Z,99.90
2019-02-25T04:54:45.669Z,99.90
2019-02-25T04:57:16.227Z,99.90
2019-02-25T04:59:46.861Z,99.90
2019-02-25T05:02:17.411Z,99.90
2019-02-25T05:04:48.021Z,99.90
2019-02-25T05:07:18.617Z,99.90
2019-02-25T05:09:49.114Z,99.90
2019-02-25T05:12:19.712Z,99.90
2019-02-25T05:14:50.297Z,99.90
2019-02-25T05:17:20.949Z,99.90
2019-02-25T05:19:51.529Z,99.90
2019-02-25T05:22:22.038Z,99.90
2019-02-25T05:24:52.629Z,99.90
2019-02-25T05:27:23.123Z,99.90
2019-02-25T05:29:53.649Z,99.90
2019-02-25T05:32:24.241Z,99.90
2019-02-25T05:34:54.816Z,99.90
2019-02-25T05:37:25.405Z,99.90
2019-02-25T05:39:55.993Z,99.90
2019-02-25T05:42:26.591Z,99.90
2019-02-25T05:44:57.171Z,99.90
2019-02-25T05:47:27.753Z,99.90
2019-02-25T05:49:58.422Z,99.90
2019-02-25T05:52:29.985Z,99.90
2019-02-25T05:55:00.584Z,99.90
2019-02-25T05:57:31.183Z,99.90
2019-02-25T06:00:02.686Z,99.90
2019-02-25T06:02:34.267Z,99.90
2019-02-25T06:05:04.985Z,99.90
2019-02-25T06:07:35.536Z,99.90
2019-02-25T06:10:06.474Z,99.90
2019-02-25T06:12:37.032Z,99.90
2019-02-25T06:15:08.640Z,99.90
2019-02-25T06:17:39.215Z,99.90
2019-02-25T06:20:10.501Z,99.90
2019-02-25T06:22:41.029Z,99.90
2019-02-25T06:25:11.866Z,99.90
2019-02-25T06:27:42.490Z,99.90
2019-02-25T06:30:16.960Z,99.90
2019-02-25T06:32:47.580Z,99.90
2019-02-25T06:35:18.297Z,99.90
2019-02-25T06:37:48.899Z,99.90
2019-02-25T06:43:01.897Z,99.90
2019-02-25T06:45:32.503Z,99.90
2019-02-25T06:48:03.091Z,99.90
2019-02-25T06:50:33.656Z,99.90
2019-02-25T06:53:04.541Z,99.90
2019-02-25T06:55:35.054Z,99.90
2019-02-25T06:58:05.644Z,99.90
2019-02-25T07:00:36.167Z,99.90
2019-02-25T07:03:06.765Z,99.90
2019-02-25T07:05:59.295Z,99.90
2019-02-25T07:08:39.899Z,99.90
2019-02-25T07:11:29.453Z,99.90
2019-02-25T07:14:08.622Z,99.90
2019-02-25T07:17:01.160Z,99.90
2019-02-25T07:20:02.907Z,99.90
2019-02-25T07:22:58.260Z,99.90
2019-02-25T07:25:47.793Z,99.90
2019-02-25T07:28:37.277Z,99.90
2019-02-25T07:31:18.089Z,99.90
2019-02-25T07:34:00.630Z,99.90
2019-02-25T07:37:05.180Z,99.90
2019-02-25T07:40:03.398Z,99.90
2019-02-25T07:42:52.908Z,99.90
2019-02-25T07:48:19.835Z,99.90
2019-02-25T07:53:57.272Z,99.90
2019-02-25T07:56:46.827Z,99.90
2019-02-25T07:59:24.453Z,99.90
2019-02-25T08:02:26.104Z,99.90
2019-02-25T08:05:03.236Z,99.90
2019-02-25T08:07:55.781Z,99.90
2019-02-25T08:10:36.180Z,99.90
2019-02-25T08:13:40.790Z,99.90
2019-02-25T08:16:20.569Z,99.90
2019-02-25T08:19:08.445Z,99.90
2019-02-25T08:22:03.654Z,99.90
2019-02-25T08:27:51.687Z,99.90
2019-02-25T08:30:41.181Z,99.90
2019-02-25T08:33:29.230Z,99.90
2019-02-25T08:37:10.017Z,99.90
2019-02-25T08:40:00.467Z,99.90
2019-02-25T08:42:44.178Z,99.90
2019-02-25T08:45:45.812Z,99.90
2019-02-25T08:48:23.839Z,99.90
2019-02-25T08:50:56.235Z,99.90
2019-02-25T08:53:26.894Z,99.90
2019-02-25T08:55:58.371Z,99.90
2019-02-25T08:58:28.909Z,99.90
2019-02-25T09:00:59.404Z,99.90
2019-02-25T09:03:30.009Z,99.90
2019-02-25T09:06:00.558Z,99.90
2019-02-25T09:08:31.174Z,99.90
2019-02-25T09:11:01.761Z,99.90
2019-02-25T09:13:32.357Z,99.90
2019-02-25T09:16:02.945Z,99.90
2019-02-25T09:18:33.527Z,99.90
2019-02-25T09:21:04.108Z,99.90
2019-02-25T09:23:34.737Z,99.90
2019-02-25T09:26:05.306Z,99.90
2019-02-25T09:28:38.935Z,99.90
2019-02-25T09:31:09.517Z,99.90
2019-02-25T09:33:40.126Z,99.90
2019-02-25T09:36:10.681Z,99.90
2019-02-25T09:38:41.281Z,99.90
2019-02-25T09:41:11.861Z,99.90
2019-02-25T09:43:42.473Z,99.90
2019-02-25T09:46:13.095Z,99.90
2019-02-25T09:48:43.660Z,99.90
2019-02-25T09:51:14.592Z,99.90
2019-02-25T09:53:45.155Z,99.90
2019-02-25T09:56:15.813Z,99.90
2019-02-25T09:58:46.422Z,99.90
2019-02-25T10:01:17.022Z,99.90
2019-02-25T10:03:47.591Z,99.90
2019-02-25T10:06:18.130Z,99.90
2019-02-25T10:08:48.685Z,99.90
2019-02-25T10:11:19.327Z,99.90
2019-02-25T10:13:51.785Z,99.90
2019-02-25T10:16:22.165Z,99.90
2019-02-25T10:18:53.084Z,99.90
2019-02-25T10:21:24.369Z,99.90
2019-02-25T10:23:55.428Z,99.90
2019-02-25T10:26:25.986Z,99.90
2019-02-25T10:28:56.582Z,99.90
2019-02-25T10:31:27.186Z,99.90
2019-02-25T10:33:57.750Z,99.90
2019-02-25T10:36:28.248Z,99.90
2019-02-25T10:38:58.769Z,99.90
2019-02-25T10:41:30.237Z,99.90
2019-02-25T10:44:02.287Z,99.90
2019-02-25T10:46:33.903Z,99.90
2019-02-25T10:49:11.227Z,99.90
2019-02-25T10:51:37.335Z,99.90
2019-02-25T10:54:08.816Z,99.90
2019-02-25T10:57:06.748Z,99.90
2019-02-25T11:02:44.207Z,99.90
2019-02-25T11:05:12.644Z,99.90
2019-02-25T11:07:43.208Z,99.90
2019-02-25T11:10:33.881Z,99.90
2019-02-25T11:13:04.627Z,99.90
2019-02-25T11:15:37.513Z,99.90
2019-02-25T11:18:08.667Z,99.90
2019-02-25T11:20:39.281Z,99.90
2019-02-25T11:23:12.823Z,99.90
2019-02-25T11:25:43.052Z,99.90
2019-02-25T11:28:24.890Z,99.90
2019-02-25T11:30:47.599Z,99.90
2019-02-25T11:33:18.068Z,99.90
2019-02-25T11:35:48.678Z,99.90
2019-02-25T11:38:19.260Z,99.90
2019-02-25T11:40:49.832Z,99.90
2019-02-25T11:43:21.600Z,99.90
2019-02-25T11:45:52.263Z,99.90
2019-02-25T11:48:22.814Z,99.70
2019-02-25T11:50:53.288Z,99.80
2019-02-25T11:53:23.857Z,99.90
2019-02-25T11:55:54.416Z,99.60
2019-02-25T11:58:24.903Z,99.60
2019-02-25T12:00:55.533Z,99.90
2019-02-25T12:03:26.121Z,99.30
2019-02-25T12:08:45.453Z,99.30
2019-02-25T12:11:15.917Z,98.80
2019-02-25T12:13:46.531Z,98.80
2019-02-25T12:16:17.084Z,98.80
2019-02-25T12:18:47.674Z,99.60
2019-02-25T12:21:18.140Z,98.40
2019-02-25T12:23:48.740Z,98.40
2019-02-25T12:26:19.316Z,97.80
2019-02-25T12:28:49.880Z,97.80
2019-02-25T12:31:20.432Z,95.70
2019-02-25T12:36:40.472Z,94.80
2019-02-25T12:39:11.204Z,93.30
2019-02-25T12:41:41.790Z,94.10
2019-02-25T12:44:12.404Z,94.70
2019-02-25T12:46:42.918Z,94.30
2019-02-25T12:49:13.529Z,93.10
2019-02-25T12:51:44.107Z,91.80
2019-02-25T12:54:14.708Z,93.70
2019-02-25T12:56:45.292Z,93.90
2019-02-25T12:59:15.799Z,91.20
2019-02-25T13:01:46.421Z,89.50
2019-02-25T13:04:17.020Z,90.00
2019-02-25T13:06:47.492Z,92.20
2019-02-25T13:09:18.080Z,89.30
2019-02-25T13:11:48.645Z,87.00
2019-02-25T13:14:19.248Z,88.40
2019-02-25T13:16:49.784Z,90.00
2019-02-25T13:19:20.408Z,86.20
2019-02-25T13:24:40.397Z,89.20
2019-02-25T13:27:11.883Z,82.70
2019-02-25T13:29:43.188Z,80.60
2019-02-25T13:32:13.794Z,80.60
2019-02-25T13:34:44.430Z,81.00
2019-02-25T13:37:15.011Z,69.20
2019-02-25T13:39:45.614Z,56.80
2019-02-25T13:42:16.241Z,49.10
2019-02-25T13:44:46.807Z,46.50
2019-02-25T13:47:17.349Z,43.50
2019-02-25T13:49:47.931Z,42.30
2019-02-25T13:52:18.503Z,40.00
2019-02-25T13:54:49.080Z,37.80
2019-02-25T13:57:19.680Z,37.50
2019-02-25T13:59:51.244Z,37.20
2019-02-25T14:02:21.816Z,36.80
2019-02-25T14:04:52.356Z,34.40
2019-02-25T14:07:23.175Z,34.30
2019-02-25T14:09:53.784Z,35.00
2019-02-25T14:12:24.345Z,34.60
2019-02-25T14:14:54.952Z,34.20
2019-02-25T14:17:26.440Z,34.10
2019-02-25T14:19:57.801Z,33.70
2019-02-25T14:22:28.584Z,33.90
2019-02-25T14:24:59.526Z,34.30
2019-02-25T14:27:30.228Z,33.50
2019-02-25T14:30:00.971Z,33.80
2019-02-25T14:32:31.966Z,34.30
2019-02-25T14:35:05.119Z,32.40
2019-02-25T14:37:35.410Z,33.20
2019-02-25T14:40:08.691Z,32.60
2019-02-25T14:42:39.431Z,32.30
2019-02-25T14:45:11.477Z,33.60
2019-02-25T14:47:44.245Z,34.50
2019-02-25T14:50:16.009Z,33.30
2019-02-25T14:52:48.350Z,31.80
2019-02-25T14:55:19.308Z,31.10
2019-02-25T14:57:50.249Z,31.30
2019-02-25T15:00:24.242Z,30.70
2019-02-25T15:02:56.013Z,31.50
2019-02-25T15:05:27.101Z,30.00
2019-02-25T15:07:58.588Z,30.80
2019-02-25T15:10:31.723Z,30.60
2019-02-25T15:13:03.834Z,28.80
2019-02-25T15:15:34.872Z,29.00
2019-02-25T15:18:05.867Z,28.60
2019-02-25T15:20:36.694Z,27.30
2019-02-25T15:23:07.743Z,27.80
2019-02-25T15:25:40.882Z,27.90
2019-02-25T15:28:11.996Z,27.50
2019-02-25T15:30:44.141Z,28.00
2019-02-25T15:33:15.145Z,27.30
2019-02-25T15:35:46.913Z,27.00
2019-02-25T15:38:17.520Z,28.10
2019-02-25T15:40:48.217Z,26.70
2019-02-25T15:43:21.259Z,27.30
2019-02-25T15:45:51.208Z,27.30
2019-02-25T15:48:22.308Z,27.30
2019-02-25T15:50:55.613Z,26.90
2019-02-25T15:53:26.994Z,27.50
2019-02-25T15:56:01.022Z,27.70
2019-02-25T15:58:29.923Z,27.60
2019-02-25T16:01:00.576Z,27.80
2019-02-25T16:03:32.252Z,27.30
2019-02-25T16:06:07.929Z,26.60
2019-02-25T16:08:38.565Z,27.50
2019-02-25T16:11:09.775Z,26.40
2019-02-25T16:13:40.367Z,27.00
2019-02-25T16:16:11.597Z,26.80
2019-02-25T16:18:42.603Z,27.30
2019-02-25T16:21:13.392Z,27.10
2019-02-25T16:23:45.362Z,27.70
2019-02-25T16:26:17.784Z,28.10
2019-02-25T16:28:50.261Z,28.50
2019-02-25T16:31:20.697Z,28.90
2019-02-25T16:33:53.260Z,29.50
2019-02-25T16:39:00.402Z,31.80
2019-02-25T16:41:34.729Z,33.50
2019-02-25T16:44:06.677Z,34.90
2019-02-25T16:46:39.431Z,35.60
2019-02-25T16:49:09.429Z,37.00
2019-02-25T16:52:00.344Z,37.90
2019-02-25T16:54:31.323Z,38.70
2019-02-25T16:57:01.887Z,39.40
2019-02-25T16:59:32.797Z,40.30
2019-02-25T17:02:04.676Z,40.90
2019-02-25T17:07:24.917Z,42.70
2019-02-25T17:09:56.888Z,44.20
2019-02-25T17:12:29.578Z,46.00
2019-02-25T17:15:00.941Z,47.80
2019-02-25T17:17:32.188Z,50.30
2019-02-25T17:20:03.075Z,51.60
2019-02-25T17:22:34.636Z,53.10
2019-02-25T17:25:09.654Z,54.40
2019-02-25T17:27:38.354Z,57.30
2019-02-25T17:30:16.988Z,59.90
2019-02-25T17:32:48.424Z,63.80
2019-02-25T17:35:21.353Z,63.40
2019-02-25T17:37:53.400Z,66.60
2019-02-25T17:40:24.811Z,65.30
2019-02-25T17:42:56.391Z,68.20
2019-02-25T17:45:29.109Z,72.40
2019-02-25T17:48:03.186Z,73.90
2019-02-25T17:50:34.587Z,75.60
2019-02-25T17:53:05.085Z,78.40
2019-02-25T17:55:36.637Z,82.10
2019-02-25T17:58:08.011Z,85.80
2019-02-25T18:00:42.340Z,86.40
2019-02-25T18:03:14.973Z,87.10
2019-02-25T18:05:45.797Z,85.00
2019-02-25T18:08:16.998Z,86.10
2019-02-25T18:10:48.343Z,88.20
2019-02-25T18:13:21.963Z,90.70
2019-02-25T18:15:53.661Z,90.30
2019-02-25T18:18:25.194Z,90.70
2019-02-25T18:20:55.796Z,90.50
2019-02-25T18:23:26.869Z,89.20
2019-02-25T18:25:58.822Z,89.20
2019-02-25T18:28:30.512Z,89.20
2019-02-25T18:31:01.752Z,84.80
2019-02-25T18:33:33.549Z,89.30
2019-02-25T18:38:54.832Z,84.60
2019-02-25T18:41:27.435Z,83.90
2019-02-25T18:43:58.348Z,81.60
2019-02-25T18:46:29.812Z,85.30
2019-02-25T18:49:02.647Z,90.70
2019-02-25T18:51:35.783Z,92.60
2019-02-25T18:54:06.369Z,93.60
2019-02-25T18:59:20.286Z,94.00
2019-02-25T19:01:52.028Z,94.00
2019-02-25T19:04:23.442Z,93.60
2019-02-25T19:06:54.354Z,93.40
2019-02-25T19:09:25.572Z,93.00
2019-02-25T19:11:58.329Z,92.80
2019-02-25T19:14:30.942Z,90.70
2019-02-25T19:17:02.658Z,90.30
2019-02-25T19:19:36.465Z,90.40
2019-02-25T19:22:08.675Z,90.10
2019-02-25T19:24:42.249Z,89.10
2019-02-25T19:27:12.942Z,88.70
2019-02-25T19:29:45.551Z,91.60
2019-02-25T19:32:16.363Z,91.60
2019-02-25T19:34:47.140Z,92.00
2019-02-25T19:37:17.987Z,93.30
2019-02-25T19:39:50.414Z,93.40
2019-02-25T19:42:22.877Z,92.80
2019-02-25T19:44:53.755Z,92.70
2019-02-25T19:47:24.740Z,92.90
2019-02-25T19:49:57.173Z,93.30
2019-02-25T19:52:30.725Z,94.10
2019-02-25T19:55:00.730Z,94.70
2019-02-25T19:57:32.033Z,95.90
2019-02-25T20:00:03.084Z,95.70
2019-02-25T20:02:35.289Z,97.30
2019-02-25T20:05:11.669Z,98.70
2019-02-25T20:07:41.073Z,99.30
2019-02-25T20:10:13.690Z,99.30
2019-02-25T20:12:44.495Z,99.20
2019-02-25T20:15:18.756Z,98.70
2019-02-25T20:17:50.644Z,98.90
2019-02-25T20:20:22.288Z,99.00
2019-02-25T20:22:53.303Z,97.90
2019-02-25T20:25:26.375Z,97.90
2019-02-25T20:27:57.621Z,99.10
2019-02-25T20:30:30.494Z,99.20
2019-02-25T20:33:03.312Z,98.50
2019-02-25T20:35:33.872Z,98.40
2019-02-25T20:38:05.203Z,98.50
2019-02-25T20:43:21.259Z,98.60
2019-02-25T20:45:54.082Z,98.70
2019-02-25T20:48:22.724Z,99.10
2019-02-25T20:50:53.277Z,99.10
2019-02-25T20:53:27.277Z,98.80
2019-02-25T20:55:58.894Z,98.70
2019-02-25T20:58:29.581Z,98.90
2019-02-25T21:01:05.277Z,98.80
2019-02-25T21:03:33.643Z,97.80
2019-02-25T21:08:52.825Z,97.40
2019-02-25T21:11:23.414Z,97.90
2019-02-25T21:13:54.174Z,97.80
2019-02-25T21:16:26.301Z,97.20
2019-02-25T21:18:57.297Z,97.30
2019-02-25T21:21:28.673Z,97.60
2019-02-25T21:24:01.936Z,98.00
2019-02-25T21:26:33.990Z,98.40
2019-02-25T21:29:06.991Z,99.90
2019-02-25T21:31:42.627Z,99.90
2019-02-25T21:34:15.328Z,99.90
2019-02-25T21:36:43.260Z,99.90
2019-02-25T21:39:14.677Z,99.90
2019-02-25T21:41:46.573Z,99.90
2019-02-25T21:44:19.461Z,99.90
2019-02-25T21:46:51.936Z,99.90
2019-02-25T21:49:25.117Z,99.90
2019-02-25T21:51:54.609Z,99.90
2019-02-25T21:54:25.423Z,99.90
2019-02-25T21:56:56.097Z,99.90
2019-02-25T21:59:26.797Z,99.90
2019-02-25T22:01:59.251Z,99.90
2019-02-25T22:04:30.009Z,99.90
2019-02-25T22:07:02.549Z,99.90
2019-02-25T22:09:36.977Z,99.90
2019-02-25T22:12:05.758Z,99.90
2019-02-25T22:14:36.856Z,99.90
2019-02-25T22:17:08.249Z,99.90
2019-02-25T22:19:41.370Z,99.90
2019-02-25T22:22:12.150Z,99.90
2019-02-25T22:24:43.038Z,99.90
2019-02-25T22:27:16.088Z,99.90
2019-02-25T22:29:47.064Z,99.90
2019-02-25T22:32:18.704Z,99.90
2019-02-25T22:34:49.839Z,99.90
2019-02-25T22:37:22.593Z,99.90
2019-02-25T22:39:54.642Z,99.90
2019-02-25T22:42:26.967Z,99.90
2019-02-25T22:44:58.225Z,99.90
2019-02-25T22:47:29.496Z,99.90
2019-02-25T22:50:00.430Z,99.90
2019-02-25T22:52:33.179Z,99.90
2019-02-25T22:55:07.914Z,99.90
2019-02-25T22:57:37.868Z,99.90
2019-02-25T23:00:28.316Z,99.90
2019-02-25T23:03:00.767Z,99.90
2019-02-25T23:05:32.563Z,99.90
2019-02-25T23:08:03.568Z,99.90
2019-02-25T23:10:38.093Z,99.90
2019-02-25T23:13:07.145Z,99.90
2019-02-25T23:15:38.217Z,99.90
2019-02-25T23:18:11.986Z,99.90
2019-02-25T23:20:41.779Z,99.90
2019-02-25T23:23:12.497Z,99.90
2019-02-25T23:25:46.817Z,99.90
2019-02-25T23:28:16.277Z,99.90
2019-02-25T23:30:47.529Z,99.90
2019-02-25T23:33:21.282Z,99.90
2019-02-25T23:35:51.856Z,99.90
2019-02-25T23:38:23.740Z,99.90
2019-02-25T23:40:54.828Z,99.90
2019-02-25T23:43:25.750Z,99.90
2019-02-25T23:45:58.005Z,99.90
2019-02-25T23:48:32.933Z,99.90
2019-02-25T23:51:01.390Z,99.90
2019-02-25T23:53:32.931Z,99.90
2019-02-25T23:56:05.061Z,99.90
2019-02-25T23:58:38.407Z,99.90
